FW0751 Weather Reports


time (UTC)temp
C
wind
direction
speed
KPH
gust
KPH
rain 1hr
cm
rain 24hr
cm
rain mn
cm
humidity
%
barometer
mb
20200228141018 10 180 1.6 3.2 0.00 0.00 0.00 91 1016.1
20200228140017 10 0.0 3.2 0.00 0.00 0.00 92 1016.0
20200228135017 10 180 1.6 1.6 0.00 0.00 0.00 92 1015.7
20200228134017 10 180 1.6 1.6 0.00 0.00 0.00 92 1015.7
20200228133017 10 0.0 1.6 0.00 0.00 0.00 91 1015.5
20200228132017 10 180 1.6 1.6 0.00 0.00 0.00 91 1015.5
20200228131017 10 180 1.6 1.6 0.00 0.00 0.00 91 1015.4
20200228130018 10 180 3.2 3.2 0.00 0.00 0.00 92 1015.2
20200228125017 10 180 3.2 4.8 0.00 0.00 0.00 92 1015.0
20200228124017 10 180 4.8 6.4 0.00 0.00 0.00 92 1015.0
20200228123017 10 180 3.2 4.8 0.00 0.00 0.00 93 1015.0
20200228122018 10 180 4.8 6.4 0.00 0.00 0.00 92 1014.9
20200228121017 10 180 4.8 6.4 0.00 0.00 0.00 93 1014.8
20200228120017 10 180 4.8 4.8 0.00 0.00 0.00 93 1014.9
20200228115017 10 180 1.6 3.2 0.00 0.00 0.00 93 1014.9
20200228114017 10 180 1.6 3.2 0.00 0.00 0.00 92 1014.8
20200228113017 10 180 3.2 4.8 0.00 0.00 0.00 92 1014.8
20200228112017 10 180 3.2 4.8 0.00 0.00 0.00 92 1014.9
20200228111017 10 180 3.2 4.8 0.00 0.00 0.00 92 1014.9
20200228110017 10 180 3.2 3.2 0.00 0.00 0.00 92 1014.8
20200228105017 10 180 1.6 3.2 0.00 0.00 0.00 91 1014.8
20200228104017 11 180 3.2 4.8 0.00 0.00 0.00 91 1014.9
20200228103017 11 180 3.2 4.8 0.00 0.00 0.00 91 1014.9
20200228102017 10 180 4.8 6.4 0.00 0.00 0.00 91 1014.9
20200228101017 10 180 3.2 6.4 0.00 0.00 0.00 92 1015.0